Time;durP1;ratioP1;P1;durP2;ratioP2;P2;SDS_P1;SDS_P2;PMS_P1;PMS_P2;Temp;Humidity;BMP_temperature;BMP_pressure;BME280_temperature;BME280_humidity;BME280_pressure;Samples;Min_cycle;Max_cycle;Signal;HPM_P1;HPM_P2
2022/07/03 00:01:22;;;;;;;1.93;1.93;;;;;;;;;;4926023;29;20440;-76
2022/07/03 00:03:48;;;;;;;1.97;1.43;;;;;;;;;;4928584;29;20444;-79
2022/07/03 00:06:14;;;;;;;1.93;1.80;;;;;;;;;;4922536;29;20463;-79
2022/07/03 00:08:40;;;;;;;1.83;1.83;;;;;;;;;;4930463;29;20448;-78
2022/07/03 00:11:08;;;;;;;1.60;1.60;;;;;;;;;;4930869;29;20451;-78
2022/07/03 00:13:35;;;;;;;2.53;2.30;;;;;;;;;;4930160;29;21035;-79
2022/07/03 00:16:01;;;;;;;1.80;1.70;;;;;;;;;;4930114;29;20541;-78
2022/07/03 00:18:27;;;;;;;2.00;2.00;;;;;;;;;;4930116;29;20493;-75
2022/07/03 00:20:59;;;;;;;3.33;1.63;;;;;;;;;;4930528;29;20443;-74
2022/07/03 00:23:25;;;;;;;1.83;1.83;;;;;;;;;;4930685;29;20431;-79
2022/07/03 00:25:51;;;;;;;1.53;1.53;;;;;;;;;;4929174;29;20442;-78
2022/07/03 00:28:19;;;;;;;4.00;1.87;;;;;;;;;;4927249;29;20530;-79
2022/07/03 00:30:48;;;;;;;1.77;1.77;;;;;;;;;;4924833;29;20447;-79
2022/07/03 00:33:14;;;;;;;2.03;1.93;;;;;;;;;;4927215;29;20488;-79
2022/07/03 00:35:43;;;;;;;1.73;1.63;;;;;;;;;;4928165;29;20491;-79
2022/07/03 00:38:11;;;;;;;1.37;1.20;;;;;;;;;;4929676;29;20471;-78
2022/07/03 00:40:37;;;;;;;4.67;1.40;;;;;;;;;;4931226;29;20448;-80
2022/07/03 00:43:04;;;;;;;2.53;1.70;;;;;;;;;;4930153;29;20483;-79
2022/07/03 00:45:33;;;;;;;1.60;1.60;;;;;;;;;;4926885;29;20964;-78
2022/07/03 00:47:59;;;;;;;1.77;1.67;;;;;;;;;;4928822;29;20481;-77
2022/07/03 00:50:26;;;;;;;1.20;1.20;;;;;;;;;;4930382;29;20443;-79
2022/07/03 00:52:53;;;;;;;1.67;1.67;;;;;;;;;;4931675;29;20435;-79
2022/07/03 00:55:19;;;;;;;1.33;1.30;;;;;;;;;;4929164;29;20490;-80
2022/07/03 00:57:46;;;;;;;2.73;1.30;;;;;;;;;;4931688;29;21002;-79
2022/07/03 01:00:13;;;;;;;1.60;1.60;;;;;;;;;;4926806;29;20956;-79
2022/07/03 01:03:02;;;;;;;1.33;1.33;;;;;;;;;;4929652;29;20431;-76
2022/07/03 01:05:28;;;;;;;2.77;1.27;;;;;;;;;;4928361;29;20439;-79
2022/07/03 01:07:54;;;;;;;1.63;1.53;;;;;;;;;;4928878;29;20435;-77
2022/07/03 01:10:29;;;;;;;5.17;1.73;;;;;;;;;;4928786;29;20450;-76
2022/07/03 01:12:58;;;;;;;5.83;2.20;;;;;;;;;;4929600;29;20246;-74
2022/07/03 01:15:37;;;;;;;2.30;1.87;;;;;;;;;;4931569;29;20573;-76
2022/07/03 01:18:11;;;;;;;2.00;1.90;;;;;;;;;;4933480;29;20446;-79
2022/07/03 01:20:39;;;;;;;1.40;1.40;;;;;;;;;;4934224;29;20455;-78
2022/07/03 01:23:13;;;;;;;1.30;1.30;;;;;;;;;;4930700;29;20515;-79
2022/07/03 01:25:42;;;;;;;5.73;1.37;;;;;;;;;;4931330;29;20448;-79
2022/07/03 01:28:11;;;;;;;1.03;1.03;;;;;;;;;;4929903;29;20435;-79
2022/07/03 01:30:47;;;;;;;1.40;1.33;;;;;;;;;;4932817;29;20456;-79
2022/07/03 01:33:16;;;;;;;1.00;1.00;;;;;;;;;;4930347;29;20978;-76
2022/07/03 01:35:47;;;;;;;1.30;1.20;;;;;;;;;;4931708;29;20479;-80
2022/07/03 01:38:14;;;;;;;2.13;2.03;;;;;;;;;;4930380;29;20495;-79
2022/07/03 01:40:41;;;;;;;2.03;1.93;;;;;;;;;;4933223;29;20470;-79
2022/07/03 01:43:09;;;;;;;5.07;1.20;;;;;;;;;;4930501;29;20444;-77
2022/07/03 01:45:46;;;;;;;1.37;1.30;;;;;;;;;;4932264;29;20531;-77
2022/07/03 01:48:12;;;;;;;1.00;1.00;;;;;;;;;;4932524;29;20924;-79
2022/07/03 01:50:39;;;;;;;1.20;1.20;;;;;;;;;;4931833;29;20439;-79
2022/07/03 01:53:07;;;;;;;3.90;0.97;;;;;;;;;;4933455;29;20427;-78
2022/07/03 01:55:34;;;;;;;2.10;1.17;;;;;;;;;;4931417;29;21021;-78
2022/07/03 01:58:00;;;;;;;1.23;1.13;;;;;;;;;;4931196;29;20431;-78
2022/07/03 02:00:26;;;;;;;2.07;1.97;;;;;;;;;;4931648;29;20443;-75
2022/07/03 02:02:55;;;;;;;1.70;1.70;;;;;;;;;;4932423;29;20522;-73
2022/07/03 02:05:21;;;;;;;2.40;1.70;;;;;;;;;;4932745;29;20458;-79
2022/07/03 02:07:50;;;;;;;1.53;1.53;;;;;;;;;;4933301;29;20448;-78
2022/07/03 02:10:17;;;;;;;4.63;1.50;;;;;;;;;;4931144;29;20279;-79
2022/07/03 02:12:43;;;;;;;1.50;1.40;;;;;;;;;;4933256;29;20440;-79
2022/07/03 02:15:10;;;;;;;2.80;1.40;;;;;;;;;;4930409;29;20538;-79
2022/07/03 02:17:43;;;;;;;1.20;1.17;;;;;;;;;;4931835;29;20636;-79
2022/07/03 02:20:10;;;;;;;1.60;1.60;;;;;;;;;;4932105;29;20476;-79
2022/07/03 02:22:36;;;;;;;2.83;1.00;;;;;;;;;;4932053;29;20467;-79
2022/07/03 02:25:04;;;;;;;1.03;1.03;;;;;;;;;;4929909;29;20684;-79
2022/07/03 02:27:32;;;;;;;1.10;1.10;;;;;;;;;;4931329;29;20432;-79
2022/07/03 02:30:06;;;;;;;1.17;1.17;;;;;;;;;;4931020;29;20432;-79
2022/07/03 02:32:38;;;;;;;6.40;1.20;;;;;;;;;;4931964;29;20443;-79
2022/07/03 02:35:10;;;;;;;1.40;1.33;;;;;;;;;;4927532;29;20853;-78
2022/07/03 02:37:40;;;;;;;1.30;1.00;;;;;;;;;;4933241;29;20472;-79
2022/07/03 02:40:15;;;;;;;1.10;1.10;;;;;;;;;;4932523;29;20440;-79
2022/07/03 02:43:03;;;;;;;1.27;1.20;;;;;;;;;;4930614;29;20830;-79
2022/07/03 02:45:33;;;;;;;1.37;1.37;;;;;;;;;;4928693;29;20447;-79
2022/07/03 02:48:13;;;;;;;6.13;1.00;;;;;;;;;;4928061;29;20437;-77
2022/07/03 02:50:41;;;;;;;1.10;1.10;;;;;;;;;;4931031;29;20456;-78
2022/07/03 02:53:20;;;;;;;0.93;0.93;;;;;;;;;;4932503;29;20432;-74
2022/07/03 02:55:47;;;;;;;1.03;0.80;;;;;;;;;;4929853;29;20487;-74
2022/07/03 02:58:28;;;;;;;0.97;0.83;;;;;;;;;;4926996;29;20449;-77
2022/07/03 03:01:00;;;;;;;0.90;0.90;;;;;;;;;;4929232;29;20899;-79
2022/07/03 03:03:32;;;;;;;7.70;1.10;;;;;;;;;;4928919;29;20995;-79
2022/07/03 03:06:02;;;;;;;1.03;0.80;;;;;;;;;;4930693;29;20975;-77
2022/07/03 03:08:36;;;;;;;0.50;0.50;;;;;;;;;;4929110;29;20916;-79
2022/07/03 03:11:09;;;;;;;0.90;0.90;;;;;;;;;;4932061;29;20528;-79
2022/07/03 03:13:36;;;;;;;0.67;0.67;;;;;;;;;;4913934;29;20536;-79
2022/07/03 03:16:06;;;;;;;1.63;1.50;;;;;;;;;;4931314;29;20574;-76
2022/07/03 03:18:34;;;;;;;0.70;0.70;;;;;;;;;;4931312;29;20944;-78
2022/07/03 03:21:01;;;;;;;3.03;0.80;;;;;;;;;;4931366;29;20448;-79
2022/07/03 03:23:36;;;;;;;4.07;0.93;;;;;;;;;;4929128;29;20424;-78
2022/07/03 03:26:02;;;;;;;2.30;0.93;;;;;;;;;;4927205;29;20431;-77
2022/07/03 03:28:28;;;;;;;0.97;0.93;;;;;;;;;;4928578;29;20432;-80
2022/07/03 03:30:54;;;;;;;2.63;1.10;;;;;;;;;;4930901;29;20443;-79
2022/07/03 03:33:20;;;;;;;5.07;1.30;;;;;;;;;;4930663;29;20444;-78
2022/07/03 03:35:46;;;;;;;1.20;1.20;;;;;;;;;;4929669;29;20484;-79
2022/07/03 03:38:12;;;;;;;1.93;1.80;;;;;;;;;;4926249;29;20548;-78
2022/07/03 03:40:38;;;;;;;1.30;1.27;;;;;;;;;;4930623;29;20448;-77
2022/07/03 03:43:04;;;;;;;2.10;1.70;;;;;;;;;;4931591;29;20435;-75
2022/07/03 03:45:30;;;;;;;1.37;1.37;;;;;;;;;;4929431;29;20797;-74
2022/07/03 03:47:56;;;;;;;3.37;1.40;;;;;;;;;;4927656;29;20459;-79
2022/07/03 03:50:23;;;;;;;1.70;1.03;;;;;;;;;;4929169;29;20452;-79
2022/07/03 03:52:49;;;;;;;2.30;1.53;;;;;;;;;;4930328;29;20519;-79
2022/07/03 03:55:15;;;;;;;2.00;1.40;;;;;;;;;;4927794;29;20844;-79
2022/07/03 03:57:41;;;;;;;1.57;1.47;;;;;;;;;;4929131;29;20436;-78
2022/07/03 04:00:07;;;;;;;1.90;1.60;;;;;;;;;;4928771;29;20496;-76
2022/07/03 04:02:33;;;;;;;9.03;1.30;;;;;;;;;;4928253;29;20434;-77
2022/07/03 04:04:59;;;;;;;1.37;1.23;;;;;;;;;;4930205;29;20840;-78
2022/07/03 04:07:25;;;;;;;1.50;1.50;;;;;;;;;;4929052;29;20443;-78
2022/07/03 04:09:51;;;;;;;1.80;1.40;;;;;;;;;;4931062;29;20448;-79
2022/07/03 04:12:17;;;;;;;1.40;1.30;;;;;;;;;;4931511;29;20438;-79
2022/07/03 04:14:43;;;;;;;2.63;0.97;;;;;;;;;;4927906;29;21051;-79
2022/07/03 04:17:09;;;;;;;3.77;1.93;;;;;;;;;;4928911;29;20530;-79
2022/07/03 04:19:35;;;;;;;2.93;1.47;;;;;;;;;;4929911;29;20451;-79
2022/07/03 04:22:01;;;;;;;1.27;1.27;;;;;;;;;;4929367;29;20490;-77
2022/07/03 04:24:27;;;;;;;1.40;1.40;;;;;;;;;;4926889;29;20446;-78
2022/07/03 04:26:53;;;;;;;3.07;1.57;;;;;;;;;;4929313;29;20447;-78
2022/07/03 04:29:19;;;;;;;1.30;1.20;;;;;;;;;;4927847;29;20431;-79
2022/07/03 04:31:45;;;;;;;5.17;2.00;;;;;;;;;;4925459;29;20862;-78
2022/07/03 04:34:12;;;;;;;6.40;1.47;;;;;;;;;;4930740;29;20435;-77
2022/07/03 04:36:38;;;;;;;3.07;1.80;;;;;;;;;;4929794;29;20486;-74
2022/07/03 04:39:04;;;;;;;7.40;2.33;;;;;;;;;;4931180;29;20463;-74
2022/07/03 04:41:30;;;;;;;1.93;1.60;;;;;;;;;;4928098;29;20428;-79
2022/07/03 04:43:56;;;;;;;1.70;1.60;;;;;;;;;;4927932;29;20558;-76
2022/07/03 04:46:23;;;;;;;3.23;1.30;;;;;;;;;;4928446;29;20797;-79
2022/07/03 04:48:49;;;;;;;1.33;1.33;;;;;;;;;;4930282;29;20444;-79
2022/07/03 04:51:15;;;;;;;1.27;1.20;;;;;;;;;;4932812;29;20987;-77
2022/07/03 04:53:42;;;;;;;2.70;1.10;;;;;;;;;;4932709;29;20467;-79
2022/07/03 04:56:08;;;;;;;1.27;1.17;;;;;;;;;;4930028;29;20499;-79
2022/07/03 04:58:34;;;;;;;3.03;1.37;;;;;;;;;;4931176;29;20442;-79
2022/07/03 05:01:00;;;;;;;2.83;1.20;;;;;;;;;;4932562;29;20435;-79
2022/07/03 05:03:27;;;;;;;1.30;1.30;;;;;;;;;;4935122;29;20484;-79
2022/07/03 05:05:53;;;;;;;3.30;1.67;;;;;;;;;;4921570;29;20671;-78
2022/07/03 05:08:20;;;;;;;4.73;1.50;;;;;;;;;;4934130;29;20492;-78
2022/07/03 05:10:46;;;;;;;2.77;1.40;;;;;;;;;;4930168;29;20443;-78
2022/07/03 05:13:12;;;;;;;1.67;1.57;;;;;;;;;;4932651;29;20463;-80
2022/07/03 05:15:38;;;;;;;1.60;1.50;;;;;;;;;;4931423;29;20499;-79
2022/07/03 05:18:04;;;;;;;3.03;1.57;;;;;;;;;;4933974;29;20447;-77
2022/07/03 05:20:30;;;;;;;1.20;1.20;;;;;;;;;;4932129;29;20827;-77
2022/07/03 05:22:57;;;;;;;1.43;1.40;;;;;;;;;;4932117;29;20439;-77
2022/07/03 05:25:23;;;;;;;1.03;0.80;;;;;;;;;;4930149;29;20448;-77
2022/07/03 05:27:50;;;;;;;5.60;1.30;;;;;;;;;;4934719;29;20486;-73
2022/07/03 05:30:16;;;;;;;1.20;1.20;;;;;;;;;;4932937;29;20436;-77
2022/07/03 05:32:42;;;;;;;0.70;0.70;;;;;;;;;;4933470;29;20791;-77
2022/07/03 05:35:08;;;;;;;3.03;1.20;;;;;;;;;;4928818;29;20626;-79
2022/07/03 05:37:34;;;;;;;1.07;1.07;;;;;;;;;;4933825;29;20554;-78
2022/07/03 05:40:00;;;;;;;2.10;1.20;;;;;;;;;;4934477;29;20436;-80
2022/07/03 05:42:26;;;;;;;2.10;0.97;;;;;;;;;;4932156;29;20956;-78
2022/07/03 05:44:52;;;;;;;2.53;0.97;;;;;;;;;;4931403;29;20939;-79
2022/07/03 05:47:18;;;;;;;1.23;1.23;;;;;;;;;;4929163;29;20555;-76
2022/07/03 05:49:44;;;;;;;1.90;0.97;;;;;;;;;;4932607;29;21152;-78
2022/07/03 05:52:10;;;;;;;0.67;0.67;;;;;;;;;;4932816;29;20436;-78
2022/07/03 05:54:36;;;;;;;0.80;0.80;;;;;;;;;;4930047;29;20483;-78
2022/07/03 05:57:02;;;;;;;0.80;0.80;;;;;;;;;;4934729;29;20432;-79
2022/07/03 05:59:28;;;;;;;2.10;0.80;;;;;;;;;;4931539;29;20519;-80
2022/07/03 06:01:54;;;;;;;1.70;0.80;;;;;;;;;;4930230;29;20850;-74
2022/07/03 06:04:20;;;;;;;1.07;1.07;;;;;;;;;;4930413;29;20428;-74
2022/07/03 06:06:46;;;;;;;1.00;1.00;;;;;;;;;;4933228;29;20451;-75
2022/07/03 06:09:12;;;;;;;1.00;1.00;;;;;;;;;;4931343;29;20436;-73
2022/07/03 06:11:38;;;;;;;1.00;1.00;;;;;;;;;;4934537;29;20439;-74
2022/07/03 06:14:04;;;;;;;3.73;0.80;;;;;;;;;;4929668;29;20781;-73
2022/07/03 06:16:30;;;;;;;2.00;1.07;;;;;;;;;;4932219;29;20506;-73
2022/07/03 06:18:56;;;;;;;3.47;1.40;;;;;;;;;;4930207;29;20809;-72
2022/07/03 06:21:21;;;;;;;10.90;1.00;;;;;;;;;;4930582;29;20510;-74
2022/07/03 06:23:47;;;;;;;0.90;0.90;;;;;;;;;;4931261;29;20436;-76
2022/07/03 06:26:14;;;;;;;1.23;1.10;;;;;;;;;;4928506;29;20188;-77
2022/07/03 06:28:40;;;;;;;1.00;0.90;;;;;;;;;;4929959;29;20479;-77
2022/07/03 06:31:06;;;;;;;1.00;1.00;;;;;;;;;;4930320;29;20424;-77
2022/07/03 06:33:32;;;;;;;1.53;0.80;;;;;;;;;;4933967;29;20854;-78
2022/07/03 06:35:58;;;;;;;0.60;0.60;;;;;;;;;;4930441;29;21007;-75
2022/07/03 06:38:24;;;;;;;0.83;0.70;;;;;;;;;;4933755;29;20545;-75
2022/07/03 06:40:50;;;;;;;1.50;0.70;;;;;;;;;;4932076;29;20255;-76
2022/07/03 06:43:16;;;;;;;2.47;0.90;;;;;;;;;;4933822;29;20506;-78
2022/07/03 06:45:42;;;;;;;0.80;0.80;;;;;;;;;;4931481;29;20602;-76
2022/07/03 06:48:08;;;;;;;0.90;0.90;;;;;;;;;;4924678;29;20449;-72
2022/07/03 06:50:34;;;;;;;1.47;0.77;;;;;;;;;;4930871;29;20968;-73
2022/07/03 06:53:00;;;;;;;1.70;0.80;;;;;;;;;;4933212;29;20874;-73
2022/07/03 06:55:26;;;;;;;10.00;0.90;;;;;;;;;;4931856;29;20870;-72
2022/07/03 06:57:52;;;;;;;2.30;0.90;;;;;;;;;;4930455;29;20427;-74
2022/07/03 07:00:18;;;;;;;0.90;0.90;;;;;;;;;;4928214;29;20447;-74
2022/07/03 07:02:44;;;;;;;0.90;0.90;;;;;;;;;;4931505;29;20468;-73
2022/07/03 07:05:10;;;;;;;3.30;0.80;;;;;;;;;;4932753;29;20431;-72
2022/07/03 07:07:36;;;;;;;0.70;0.70;;;;;;;;;;4931191;29;20936;-73
2022/07/03 07:10:02;;;;;;;0.90;0.90;;;;;;;;;;4929580;29;20802;-72
2022/07/03 07:12:28;;;;;;;0.70;0.70;;;;;;;;;;4927258;29;20203;-72
2022/07/03 07:14:54;;;;;;;2.93;0.73;;;;;;;;;;4930984;29;20487;-71
2022/07/03 07:17:20;;;;;;;0.70;0.70;;;;;;;;;;4933227;29;20483;-78
2022/07/03 07:19:46;;;;;;;2.93;0.93;;;;;;;;;;4929126;29;20440;-75
2022/07/03 07:22:12;;;;;;;1.27;1.27;;;;;;;;;;4930729;29;20263;-75
2022/07/03 07:24:38;;;;;;;2.73;1.00;;;;;;;;;;4931913;29;20431;-72
2022/07/03 07:27:04;;;;;;;0.70;0.70;;;;;;;;;;4932339;29;20238;-77
2022/07/03 07:29:30;;;;;;;1.17;1.07;;;;;;;;;;4928495;29;20455;-78
2022/07/03 07:31:56;;;;;;;0.70;0.70;;;;;;;;;;4931727;29;20436;-75
2022/07/03 07:34:22;;;;;;;0.80;0.80;;;;;;;;;;4932661;29;20943;-74
2022/07/03 07:36:48;;;;;;;0.70;0.50;;;;;;;;;;4930402;29;20506;-76
2022/07/03 07:39:14;;;;;;;1.67;1.57;;;;;;;;;;4932728;29;20420;-75
2022/07/03 07:41:40;;;;;;;0.70;0.70;;;;;;;;;;4927619;29;20448;-76
2022/07/03 07:44:06;;;;;;;0.90;0.90;;;;;;;;;;4927762;29;20431;-74
2022/07/03 07:46:32;;;;;;;0.60;0.60;;;;;;;;;;4931196;29;20463;-73
2022/07/03 07:48:58;;;;;;;0.80;0.80;;;;;;;;;;4932909;29;20932;-77
2022/07/03 07:51:24;;;;;;;0.70;0.70;;;;;;;;;;4931163;29;20444;-76
2022/07/03 07:53:52;;;;;;;0.87;0.87;;;;;;;;;;4929923;29;20444;-72
2022/07/03 07:56:18;;;;;;;2.73;0.83;;;;;;;;;;4926566;29;20483;-76
2022/07/03 07:58:44;;;;;;;0.97;0.63;;;;;;;;;;4928327;29;20851;-71
2022/07/03 08:06:39;;;;;;;0.80;0.80;;;;;;;;;;4931134;29;20474;-74
2022/07/03 08:09:05;;;;;;;1.70;1.37;;;;;;;;;;4928550;29;20439;-74
2022/07/03 08:11:31;;;;;;;0.77;0.77;;;;;;;;;;4926610;29;20188;-77
2022/07/03 08:13:57;;;;;;;2.00;1.40;;;;;;;;;;4932022;29;20518;-75
2022/07/03 08:16:23;;;;;;;1.07;0.60;;;;;;;;;;4930565;29;20234;-75
2022/07/03 08:18:49;;;;;;;0.80;0.80;;;;;;;;;;4928740;29;20471;-74
2022/07/03 08:21:14;;;;;;;0.90;0.90;;;;;;;;;;4921939;29;20878;-77
2022/07/03 08:23:40;;;;;;;0.63;0.63;;;;;;;;;;4932024;29;21259;-74
2022/07/03 08:26:06;;;;;;;3.37;0.97;;;;;;;;;;4936350;29;20428;-73
2022/07/03 08:28:32;;;;;;;1.00;1.00;;;;;;;;;;4931488;29;20431;-72
2022/07/03 08:30:58;;;;;;;0.97;0.97;;;;;;;;;;4931526;29;20428;-72
2022/07/03 08:33:24;;;;;;;0.73;0.73;;;;;;;;;;4936439;29;20200;-73
2022/07/03 08:35:50;;;;;;;0.80;0.80;;;;;;;;;;4935639;29;20518;-75
2022/07/03 08:38:16;;;;;;;0.70;0.70;;;;;;;;;;4932736;29;20479;-76
2022/07/03 08:40:44;;;;;;;0.90;0.90;;;;;;;;;;4935446;29;20946;-72
2022/07/03 08:43:10;;;;;;;0.70;0.70;;;;;;;;;;4936143;29;20763;-72
2022/07/03 08:45:37;;;;;;;0.50;0.50;;;;;;;;;;4931688;29;20944;-73
2022/07/03 08:48:04;;;;;;;0.73;0.73;;;;;;;;;;4936915;29;20187;-72
2022/07/03 08:50:33;;;;;;;1.00;1.00;;;;;;;;;;4936592;29;20458;-72
2022/07/03 08:53:00;;;;;;;0.83;0.50;;;;;;;;;;4938330;29;20912;-71
2022/07/03 08:55:26;;;;;;;0.60;0.60;;;;;;;;;;4937277;29;20574;-71
2022/07/03 08:57:56;;;;;;;2.40;1.67;;;;;;;;;;4935681;29;20440;-72
2022/07/03 09:00:22;;;;;;;2.10;1.47;;;;;;;;;;4938265;29;20428;-71
2022/07/03 09:02:49;;;;;;;3.03;0.80;;;;;;;;;;4938458;29;20493;-72
2022/07/03 09:05:15;;;;;;;0.70;0.50;;;;;;;;;;4936507;29;20441;-74
2022/07/03 09:07:44;;;;;;;0.70;0.70;;;;;;;;;;4934873;29;20824;-72
2022/07/03 09:10:14;;;;;;;4.47;0.80;;;;;;;;;;4934905;29;20431;-72
2022/07/03 09:12:40;;;;;;;8.07;2.03;;;;;;;;;;4938239;29;20438;-71
2022/07/03 09:15:07;;;;;;;0.80;0.80;;;;;;;;;;4936551;29;20545;-72
2022/07/03 09:17:33;;;;;;;1.93;0.80;;;;;;;;;;4938210;29;21174;-73
2022/07/03 09:20:00;;;;;;;2.10;0.73;;;;;;;;;;4936052;29;20996;-72
2022/07/03 09:22:27;;;;;;;2.00;1.90;;;;;;;;;;4934298;29;20427;-72
2022/07/03 09:24:54;;;;;;;0.70;0.70;;;;;;;;;;4934960;29;20439;-72
2022/07/03 09:27:21;;;;;;;1.07;0.67;;;;;;;;;;4935626;29;20435;-72
2022/07/03 09:29:51;;;;;;;3.50;0.50;;;;;;;;;;4937489;29;20596;-71
2022/07/03 09:32:18;;;;;;;0.90;0.90;;;;;;;;;;4934653;29;20965;-72
2022/07/03 09:34:44;;;;;;;4.53;0.83;;;;;;;;;;4928629;29;20562;-72
2022/07/03 09:37:09;;;;;;;0.57;0.57;;;;;;;;;;4934887;29;20573;-72
2022/07/03 09:39:37;;;;;;;3.03;1.80;;;;;;;;;;4933456;29;20432;-72
2022/07/03 09:42:09;;;;;;;0.60;0.60;;;;;;;;;;4933741;29;20250;-73
2022/07/03 09:44:35;;;;;;;0.77;0.70;;;;;;;;;;4933481;29;20514;-72
2022/07/03 09:47:08;;;;;;;0.70;0.70;;;;;;;;;;4933005;29;20534;-71
2022/07/03 09:49:46;;;;;;;0.53;0.53;;;;;;;;;;4932641;29;20518;-72
2022/07/03 09:52:31;;;;;;;0.40;0.40;;;;;;;;;;4934860;29;20439;-72
2022/07/03 09:54:58;;;;;;;0.73;0.73;;;;;;;;;;4930065;29;20479;-74
2022/07/03 09:57:25;;;;;;;0.83;0.50;;;;;;;;;;4930572;29;20443;-72
2022/07/03 10:00:08;;;;;;;0.50;0.50;;;;;;;;;;4932812;29;20440;-72
2022/07/03 10:02:34;;;;;;;2.00;0.60;;;;;;;;;;4927935;29;20436;-74
2022/07/03 10:05:12;;;;;;;0.80;0.63;;;;;;;;;;4929726;29;20434;-74
2022/07/03 10:08:05;;;;;;;0.50;0.50;;;;;;;;;;4934781;29;20443;-74
2022/07/03 10:10:32;;;;;;;0.43;0.43;;;;;;;;;;4925987;29;20997;-73
2022/07/03 10:12:59;;;;;;;1.27;1.27;;;;;;;;;;4916313;29;20447;-71
2022/07/03 10:15:26;;;;;;;16.00;12.20;;;;;;;;;;4930395;29;20495;-72
2022/07/03 10:17:53;;;;;;;0.63;0.50;;;;;;;;;;4934229;29;20591;-74
2022/07/03 10:20:39;;;;;;;0.80;0.80;;;;;;;;;;4934151;29;20590;-74
2022/07/03 10:23:06;;;;;;;0.80;0.80;;;;;;;;;;4927026;29;21148;-73
2022/07/03 10:25:32;;;;;;;0.53;0.53;;;;;;;;;;4931180;29;20443;-80
2022/07/03 10:27:59;;;;;;;2.00;0.60;;;;;;;;;;4933669;29;20426;-72
2022/07/03 10:30:25;;;;;;;1.07;0.60;;;;;;;;;;4932636;29;20432;-72
2022/07/03 10:32:52;;;;;;;1.90;0.80;;;;;;;;;;4933855;29;20431;-72
2022/07/03 10:35:23;;;;;;;0.40;0.40;;;;;;;;;;4931041;29;20583;-72
2022/07/03 10:38:01;;;;;;;0.63;0.63;;;;;;;;;;4932437;29;20483;-76
2022/07/03 10:46:17;;;;;;;0.80;0.80;;;;;;;;;;4931333;29;20427;-72
2022/07/03 10:48:55;;;;;;;0.40;0.40;;;;;;;;;;4931984;29;20924;-72
2022/07/03 10:51:22;;;;;;;0.47;0.47;;;;;;;;;;4932204;29;20454;-72
2022/07/03 10:53:48;;;;;;;0.50;0.50;;;;;;;;;;4927530;29;20869;-72
2022/07/03 10:56:17;;;;;;;0.37;0.37;;;;;;;;;;4929331;29;20489;-72
2022/07/03 10:58:56;;;;;;;0.60;0.60;;;;;;;;;;4932716;29;20430;-72
2022/07/03 11:01:28;;;;;;;0.80;0.70;;;;;;;;;;4933420;29;20498;-72
2022/07/03 11:04:01;;;;;;;0.80;0.80;;;;;;;;;;4932611;29;20423;-71
2022/07/03 11:06:43;;;;;;;1.13;0.57;;;;;;;;;;4932713;29;20471;-71
2022/07/03 11:09:13;;;;;;;0.53;0.53;;;;;;;;;;4931775;29;20471;-72
2022/07/03 11:11:54;;;;;;;1.90;0.50;;;;;;;;;;4922853;29;20804;-72
2022/07/03 11:14:21;;;;;;;0.70;0.70;;;;;;;;;;4930506;29;20446;-73
2022/07/03 11:16:47;;;;;;;0.97;0.50;;;;;;;;;;4932249;29;20856;-72
2022/07/03 11:19:13;;;;;;;3.30;0.57;;;;;;;;;;4930603;29;20924;-74
2022/07/03 11:21:42;;;;;;;0.93;0.60;;;;;;;;;;4931730;29;20971;-71
2022/07/03 11:24:17;;;;;;;0.70;0.70;;;;;;;;;;4928940;29;20423;-72
2022/07/03 11:26:43;;;;;;;0.60;0.60;;;;;;;;;;4930612;29;20446;-72
2022/07/03 11:29:25;;;;;;;1.27;0.50;;;;;;;;;;4930433;29;20432;-72
2022/07/03 11:31:51;;;;;;;1.13;0.60;;;;;;;;;;4931318;29;20445;-73
2022/07/03 11:34:21;;;;;;;1.07;0.97;;;;;;;;;;4929447;29;20799;-71
2022/07/03 11:36:47;;;;;;;3.53;0.63;;;;;;;;;;4931404;29;20487;-71
2022/07/03 11:39:14;;;;;;;2.47;0.70;;;;;;;;;;4932310;29;20604;-72
2022/07/03 11:41:40;;;;;;;0.57;0.57;;;;;;;;;;4926627;29;20439;-75
2022/07/03 11:44:07;;;;;;;0.50;0.50;;;;;;;;;;4923640;29;20467;-74
2022/07/03 11:46:34;;;;;;;0.67;0.50;;;;;;;;;;4931304;29;20191;-72
2022/07/03 11:49:10;;;;;;;5.40;0.53;;;;;;;;;;4928349;29;20428;-73
2022/07/03 11:51:37;;;;;;;1.90;0.40;;;;;;;;;;4928345;29;20451;-73
2022/07/03 11:54:03;;;;;;;0.70;0.70;;;;;;;;;;4927704;29;20427;-75
2022/07/03 11:56:29;;;;;;;0.50;0.50;;;;;;;;;;4928473;29;20526;-72
2022/07/03 11:58:56;;;;;;;0.87;0.80;;;;;;;;;;4931014;29;20513;-74
2022/07/03 12:01:23;;;;;;;0.50;0.50;;;;;;;;;;4929239;29;20480;-72
2022/07/03 12:03:49;;;;;;;0.80;0.50;;;;;;;;;;4929777;29;20494;-72
2022/07/03 12:06:15;;;;;;;0.87;0.40;;;;;;;;;;4928705;29;20495;-76
2022/07/03 12:08:45;;;;;;;2.30;0.63;;;;;;;;;;4931364;29;20449;-74
2022/07/03 12:11:12;;;;;;;0.50;0.50;;;;;;;;;;4928527;29;20478;-72
2022/07/03 12:13:38;;;;;;;5.43;0.87;;;;;;;;;;4930605;29;20507;-65
2022/07/03 12:16:05;;;;;;;2.30;0.60;;;;;;;;;;4931515;29;20483;-65
2022/07/03 12:18:43;;;;;;;0.60;0.60;;;;;;;;;;4924992;29;20439;-72
2022/07/03 12:21:09;;;;;;;0.67;0.67;;;;;;;;;;4929205;29;20786;-72
2022/07/03 12:23:43;;;;;;;0.60;0.60;;;;;;;;;;4926850;29;20916;-71
2022/07/03 12:26:09;;;;;;;5.00;0.80;;;;;;;;;;4929208;29;20447;-72
2022/07/03 12:28:35;;;;;;;0.60;0.60;;;;;;;;;;4928215;29;20452;-72
2022/07/03 12:31:02;;;;;;;0.60;0.40;;;;;;;;;;4928439;29;20435;-72
2022/07/03 12:33:30;;;;;;;0.43;0.43;;;;;;;;;;4928987;29;20528;-72
2022/07/03 12:36:02;;;;;;;1.50;0.70;;;;;;;;;;4926255;29;20577;-71
2022/07/03 12:38:33;;;;;;;0.67;0.67;;;;;;;;;;4929748;29;21017;-80
2022/07/03 12:41:06;;;;;;;0.50;0.50;;;;;;;;;;4926879;29;20448;-81
2022/07/03 12:43:41;;;;;;;0.50;0.50;;;;;;;;;;4927825;29;20435;-79
2022/07/03 12:46:17;;;;;;;2.17;0.70;;;;;;;;;;4928147;29;20551;-83
2022/07/03 12:48:50;;;;;;;1.50;0.70;;;;;;;;;;4929754;29;20490;-74
2022/07/03 12:51:16;;;;;;;3.10;0.80;;;;;;;;;;4930573;29;20827;-80
2022/07/03 12:53:43;;;;;;;1.20;0.63;;;;;;;;;;4931461;29;20430;-79
2022/07/03 12:56:10;;;;;;;0.63;0.63;;;;;;;;;;4928745;29;20566;-76
2022/07/03 13:01:25;;;;;;;0.77;0.77;;;;;;;;;;4929214;29;20418;-77
2022/07/03 13:03:52;;;;;;;0.73;0.73;;;;;;;;;;4928372;29;20492;-72
2022/07/03 13:06:18;;;;;;;0.60;0.60;;;;;;;;;;4929736;29;20436;-74
2022/07/03 13:08:50;;;;;;;0.70;0.70;;;;;;;;;;4930590;29;20443;-76
2022/07/03 13:11:25;;;;;;;0.60;0.60;;;;;;;;;;4935030;29;20420;-78
2022/07/03 13:13:51;;;;;;;0.90;0.90;;;;;;;;;;4932448;29;20487;-77
2022/07/03 13:16:26;;;;;;;0.80;0.80;;;;;;;;;;4928547;29;20495;-73
2022/07/03 13:19:02;;;;;;;0.70;0.70;;;;;;;;;;4931902;29;20434;-74
2022/07/03 13:21:28;;;;;;;0.77;0.77;;;;;;;;;;4928488;29;20435;-75
2022/07/03 13:23:56;;;;;;;2.23;0.97;;;;;;;;;;4931726;29;20501;-78
2022/07/03 13:26:22;;;;;;;0.70;0.70;;;;;;;;;;4934411;29;20802;-76
2022/07/03 13:28:48;;;;;;;0.63;0.63;;;;;;;;;;4934092;29;20980;-81
2022/07/03 13:31:14;;;;;;;0.70;0.70;;;;;;;;;;4934946;29;20523;-82
2022/07/03 13:33:40;;;;;;;3.50;0.87;;;;;;;;;;4930688;29;20534;-82
2022/07/03 13:36:06;;;;;;;3.03;1.00;;;;;;;;;;4929927;29;20518;-81
2022/07/03 13:38:32;;;;;;;0.73;0.73;;;;;;;;;;4931212;29;20483;-78
2022/07/03 13:40:58;;;;;;;2.10;0.60;;;;;;;;;;4934732;29;20451;-79
2022/07/03 13:43:23;;;;;;;0.50;0.50;;;;;;;;;;4930516;29;20436;-77
2022/07/03 13:45:50;;;;;;;1.53;0.90;;;;;;;;;;4932628;29;20526;-76
2022/07/03 13:48:15;;;;;;;1.47;0.80;;;;;;;;;;4933636;29;20639;-82
2022/07/03 13:50:42;;;;;;;0.60;0.60;;;;;;;;;;4935012;29;20980;-75
2022/07/03 13:53:08;;;;;;;0.73;0.60;;;;;;;;;;4934833;29;20928;-79
2022/07/03 13:55:34;;;;;;;1.67;0.80;;;;;;;;;;4931762;29;20483;-82
2022/07/03 13:58:04;;;;;;;0.60;0.60;;;;;;;;;;4930276;29;20436;-78
2022/07/03 14:00:30;;;;;;;1.07;0.87;;;;;;;;;;4934566;29;20431;-76
2022/07/03 14:02:56;;;;;;;2.30;1.17;;;;;;;;;;4930238;29;20475;-81
2022/07/03 14:05:22;;;;;;;0.80;0.80;;;;;;;;;;4932084;29;20419;-76
2022/07/03 14:07:48;;;;;;;0.60;0.60;;;;;;;;;;4929940;29;20921;-76
2022/07/03 14:10:14;;;;;;;3.23;0.60;;;;;;;;;;4927518;29;20796;-72
2022/07/03 14:12:40;;;;;;;1.17;0.70;;;;;;;;;;4931814;29;20573;-75
2022/07/03 14:15:06;;;;;;;0.67;0.67;;;;;;;;;;4931057;29;20567;-80
2022/07/03 14:17:32;;;;;;;0.93;0.67;;;;;;;;;;4932775;29;21075;-78
2022/07/03 14:19:58;;;;;;;2.97;0.67;;;;;;;;;;4930647;29;20456;-80
2022/07/03 14:22:24;;;;;;;10.67;0.60;;;;;;;;;;4928399;29;20441;-81
2022/07/03 14:24:50;;;;;;;1.23;0.60;;;;;;;;;;4931798;29;20428;-77
2022/07/03 14:32:45;;;;;;;2.33;0.77;;;;;;;;;;4926971;29;20515;-78
2022/07/03 14:35:11;;;;;;;0.60;0.60;;;;;;;;;;4925437;29;20917;-75
2022/07/03 14:37:37;;;;;;;12.37;1.00;;;;;;;;;;4932308;29;20486;-73
2022/07/03 14:40:03;;;;;;;0.70;0.70;;;;;;;;;;4931073;29;20447;-80
2022/07/03 14:42:29;;;;;;;0.50;0.50;;;;;;;;;;4931375;29;20444;-78
2022/07/03 14:44:55;;;;;;;0.83;0.60;;;;;;;;;;4929548;29;20433;-82
2022/07/03 14:47:21;;;;;;;2.60;0.60;;;;;;;;;;4933039;29;20450;-73
2022/07/03 14:49:47;;;;;;;0.50;0.50;;;;;;;;;;4933134;29;20432;-82
2022/07/03 14:52:13;;;;;;;0.60;0.60;;;;;;;;;;4933457;29;20432;-74
2022/07/03 14:54:41;;;;;;;0.50;0.50;;;;;;;;;;4931315;29;20455;-80
2022/07/03 14:57:10;;;;;;;2.33;0.60;;;;;;;;;;4930713;29;20514;-72
2022/07/03 14:59:45;;;;;;;0.80;0.80;;;;;;;;;;4931593;29;20850;-72
2022/07/03 15:02:23;;;;;;;0.77;0.77;;;;;;;;;;4931818;29;20447;-73
2022/07/03 15:05:09;;;;;;;0.57;0.57;;;;;;;;;;4932366;29;20986;-72
2022/07/03 15:07:37;;;;;;;0.60;0.60;;;;;;;;;;4927497;29;20531;-77